sensor_id;sensor_type;location;lat;lon;timestamp;P1;durP1;ratioP1;P2;durP2;ratioP2
25687;SDS011;17407;51.120;3.702;2023-04-24T14:46:52;4.18;;;2.47;;
25687;SDS011;17407;51.120;3.702;2023-04-24T14:50:15;5.53;;;2.55;;
25687;SDS011;17407;51.120;3.702;2023-04-24T14:53:34;8.05;;;2.75;;
25687;SDS011;17407;51.120;3.702;2023-04-24T14:56:57;7.10;;;2.42;;
25687;SDS011;17407;51.120;3.702;2023-04-24T15:00:20;4.15;;;2.00;;
25687;SDS011;17407;51.120;3.702;2023-04-24T15:03:43;2.97;;;2.60;;
25687;SDS011;17407;51.120;3.702;2023-04-24T15:07:06;5.35;;;2.72;;
25687;SDS011;17407;51.120;3.702;2023-04-24T15:10:29;6.60;;;3.00;;
25687;SDS011;17407;51.120;3.702;2023-04-24T15:13:52;4.60;;;2.88;;
25687;SDS011;17407;51.120;3.702;2023-04-24T15:17:10;6.40;;;2.40;;
25687;SDS011;17407;51.120;3.702;2023-04-24T15:20:34;4.97;;;2.70;;
25687;SDS011;17407;51.120;3.702;2023-04-24T15:23:57;4.47;;;2.50;;
25687;SDS011;17407;51.120;3.702;2023-04-24T15:27:16;5.57;;;2.55;;
25687;SDS011;17407;51.120;3.702;2023-04-24T15:50:53;5.00;;;2.70;;
25687;SDS011;17407;51.120;3.702;2023-04-24T16:00:56;8.15;;;3.85;;
25687;SDS011;17407;51.120;3.702;2023-04-24T16:04:15;8.55;;;3.28;;
25687;SDS011;17407;51.120;3.702;2023-04-24T16:07:38;9.95;;;4.20;;
25687;SDS011;17407;51.120;3.702;2023-04-24T16:11:01;8.52;;;4.90;;
25687;SDS011;17407;51.120;3.702;2023-04-24T16:14:24;7.80;;;3.95;;
25687;SDS011;17407;51.120;3.702;2023-04-24T16:17:43;8.20;;;3.58;;
25687;SDS011;17407;51.120;3.702;2023-04-24T16:21:06;7.32;;;3.28;;
25687;SDS011;17407;51.120;3.702;2023-04-24T16:24:30;6.38;;;3.70;;
25687;SDS011;17407;51.120;3.702;2023-04-24T16:27:58;7.20;;;3.72;;
25687;SDS011;17407;51.120;3.702;2023-04-24T16:31:28;6.88;;;2.55;;
25687;SDS011;17407;51.120;3.702;2023-04-24T16:34:51;9.57;;;3.20;;
25687;SDS011;17407;51.120;3.702;2023-04-24T16:38:15;6.40;;;3.15;;
25687;SDS011;17407;51.120;3.702;2023-04-24T16:41:38;12.25;;;3.90;;
25687;SDS011;17407;51.120;3.702;2023-04-24T16:45:01;10.90;;;3.58;;
25687;SDS011;17407;51.120;3.702;2023-04-24T16:48:19;9.43;;;3.33;;
25687;SDS011;17407;51.120;3.702;2023-04-24T16:51:42;7.90;;;3.63;;
25687;SDS011;17407;51.120;3.702;2023-04-24T16:55:05;11.77;;;4.78;;
25687;SDS011;17407;51.120;3.702;2023-04-24T16:58:25;7.82;;;4.20;;
25687;SDS011;17407;51.120;3.702;2023-04-24T17:01:48;11.80;;;3.88;;
25687;SDS011;17407;51.120;3.702;2023-04-24T17:05:12;9.55;;;4.25;;
25687;SDS011;17407;51.120;3.702;2023-04-24T17:08:35;8.93;;;4.00;;
25687;SDS011;17407;51.120;3.702;2023-04-24T17:11:59;10.13;;;3.90;;
25687;SDS011;17407;51.120;3.702;2023-04-24T17:15:17;6.30;;;3.20;;
25687;SDS011;17407;51.120;3.702;2023-04-24T17:18:40;7.25;;;3.90;;
25687;SDS011;17407;51.120;3.702;2023-04-24T17:21:57;5.95;;;4.07;;
25687;SDS011;17407;51.120;3.702;2023-04-24T17:25:16;7.80;;;3.90;;
25687;SDS011;17407;51.120;3.702;2023-04-24T17:28:40;11.52;;;4.00;;
25687;SDS011;17407;51.120;3.702;2023-04-24T17:32:03;9.45;;;4.22;;
25687;SDS011;17407;51.120;3.702;2023-04-24T17:35:26;10.93;;;4.18;;
25687;SDS011;17407;51.120;3.702;2023-04-24T17:38:50;9.13;;;4.13;;
25687;SDS011;17407;51.120;3.702;2023-04-24T17:42:13;7.57;;;4.25;;
25687;SDS011;17407;51.120;3.702;2023-04-24T17:45:36;8.25;;;4.47;;
25687;SDS011;17407;51.120;3.702;2023-04-24T17:48:55;8.85;;;5.00;;
25687;SDS011;17407;51.120;3.702;2023-04-24T17:52:18;11.93;;;5.22;;
25687;SDS011;17407;51.120;3.702;2023-04-24T17:55:41;10.52;;;5.60;;
25687;SDS011;17407;51.120;3.702;2023-04-24T17:59:05;8.48;;;5.13;;
25687;SDS011;17407;51.120;3.702;2023-04-24T18:02:28;13.85;;;5.68;;
25687;SDS011;17407;51.120;3.702;2023-04-24T18:05:52;10.80;;;5.72;;
25687;SDS011;17407;51.120;3.702;2023-04-24T18:09:15;16.60;;;6.40;;
25687;SDS011;17407;51.120;3.702;2023-04-24T18:12:39;14.15;;;5.82;;
25687;SDS011;17407;51.120;3.702;2023-04-24T18:16:02;13.75;;;5.53;;
25687;SDS011;17407;51.120;3.702;2023-04-24T18:19:26;15.68;;;5.40;;
25687;SDS011;17407;51.120;3.702;2023-04-24T18:22:49;11.13;;;4.60;;
25687;SDS011;17407;51.120;3.702;2023-04-24T18:26:12;12.88;;;5.35;;
25687;SDS011;17407;51.120;3.702;2023-04-24T18:29:36;11.18;;;5.50;;
25687;SDS011;17407;51.120;3.702;2023-04-24T18:32:59;13.27;;;5.35;;
25687;SDS011;17407;51.120;3.702;2023-04-24T18:36:22;13.73;;;5.13;;
25687;SDS011;17407;51.120;3.702;2023-04-24T18:39:46;13.02;;;5.13;;
25687;SDS011;17407;51.120;3.702;2023-04-24T18:43:05;13.90;;;4.93;;
25687;SDS011;17407;51.120;3.702;2023-04-24T18:46:28;9.18;;;4.60;;
25687;SDS011;17407;51.120;3.702;2023-04-24T18:49:51;12.52;;;4.97;;
25687;SDS011;17407;51.120;3.702;2023-04-24T18:53:15;12.52;;;5.10;;
25687;SDS011;17407;51.120;3.702;2023-04-24T18:56:39;14.45;;;6.13;;
25687;SDS011;17407;51.120;3.702;2023-04-24T19:00:02;9.88;;;5.13;;
25687;SDS011;17407;51.120;3.702;2023-04-24T19:03:25;11.20;;;5.53;;
25687;SDS011;17407;51.120;3.702;2023-04-24T19:06:49;17.83;;;5.82;;
25687;SDS011;17407;51.120;3.702;2023-04-24T19:10:12;13.63;;;5.93;;
25687;SDS011;17407;51.120;3.702;2023-04-24T19:13:35;13.07;;;5.63;;
25687;SDS011;17407;51.120;3.702;2023-04-24T19:16:54;13.63;;;5.72;;
25687;SDS011;17407;51.120;3.702;2023-04-24T19:20:17;14.73;;;5.85;;
